sensor_id;sensor_type;location;lat;lon;timestamp;temperature;humidity
19483;DHT22;9882;51.166;6.992;2023-05-10T00:01:14;14.40;99.90
19483;DHT22;9882;51.166;6.992;2023-05-10T00:03:42;14.40;99.90
19483;DHT22;9882;51.166;6.992;2023-05-10T00:06:12;14.60;99.90
19483;DHT22;9882;51.166;6.992;2023-05-10T00:08:41;14.30;99.90
19483;DHT22;9882;51.166;6.992;2023-05-10T00:11:09;14.10;99.90
19483;DHT22;9882;51.166;6.992;2023-05-10T00:13:37;14.00;99.90
19483;DHT22;9882;51.166;6.992;2023-05-10T00:16:06;13.90;99.90
19483;DHT22;9882;51.166;6.992;2023-05-10T00:18:35;14.00;99.90
19483;DHT22;9882;51.166;6.992;2023-05-10T00:21:04;14.20;99.90
19483;DHT22;9882;51.166;6.992;2023-05-10T00:23:34;14.50;99.90
19483;DHT22;9882;51.166;6.992;2023-05-10T00:26:03;14.60;99.90
19483;DHT22;9882;51.166;6.992;2023-05-10T00:28:31;14.50;99.90
19483;DHT22;9882;51.166;6.992;2023-05-10T00:31:00;14.50;99.90
19483;DHT22;9882;51.166;6.992;2023-05-10T00:33:29;14.40;99.90
19483;DHT22;9882;51.166;6.992;2023-05-10T00:35:58;14.40;99.90
19483;DHT22;9882;51.166;6.992;2023-05-10T00:38:26;14.30;99.90
19483;DHT22;9882;51.166;6.992;2023-05-10T00:40:56;14.30;99.90
19483;DHT22;9882;51.166;6.992;2023-05-10T00:43:29;14.10;99.90
19483;DHT22;9882;51.166;6.992;2023-05-10T00:45:57;14.00;99.90
19483;DHT22;9882;51.166;6.992;2023-05-10T00:48:26;14.30;99.90
19483;DHT22;9882;51.166;6.992;2023-05-10T00:50:55;14.70;99.90
19483;DHT22;9882;51.166;6.992;2023-05-10T00:53:24;14.50;99.90
19483;DHT22;9882;51.166;6.992;2023-05-10T00:55:52;14.30;99.90
19483;DHT22;9882;51.166;6.992;2023-05-10T00:58:22;14.20;99.90
19483;DHT22;9882;51.166;6.992;2023-05-10T01:00:55;14.50;99.90
19483;DHT22;9882;51.166;6.992;2023-05-10T01:03:24;14.20;99.90
19483;DHT22;9882;51.166;6.992;2023-05-10T01:05:53;14.00;99.90
19483;DHT22;9882;51.166;6.992;2023-05-10T01:08:22;14.20;99.90
19483;DHT22;9882;51.166;6.992;2023-05-10T01:10:51;14.40;99.90
19483;DHT22;9882;51.166;6.992;2023-05-10T01:13:30;14.60;99.90
19483;DHT22;9882;51.166;6.992;2023-05-10T01:16:00;14.80;99.90
19483;DHT22;9882;51.166;6.992;2023-05-10T01:18:30;14.40;99.90
19483;DHT22;9882;51.166;6.992;2023-05-10T01:21:18;14.40;99.90
19483;DHT22;9882;51.166;6.992;2023-05-10T01:24:09;14.30;99.90
19483;DHT22;9882;51.166;6.992;2023-05-10T01:30:22;13.90;99.90
19483;DHT22;9882;51.166;6.992;2023-05-10T01:32:59;13.80;99.90
19483;DHT22;9882;51.166;6.992;2023-05-10T01:35:34;14.00;99.90
19483;DHT22;9882;51.166;6.992;2023-05-10T01:38:11;14.10;99.90
19483;DHT22;9882;51.166;6.992;2023-05-10T01:40:49;14.00;99.90
19483;DHT22;9882;51.166;6.992;2023-05-10T01:43:22;13.80;99.90
19483;DHT22;9882;51.166;6.992;2023-05-10T01:45:59;13.50;99.90
19483;DHT22;9882;51.166;6.992;2023-05-10T01:48:33;13.90;99.90
19483;DHT22;9882;51.166;6.992;2023-05-10T01:51:02;13.70;99.90
19483;DHT22;9882;51.166;6.992;2023-05-10T01:53:33;13.80;99.90
19483;DHT22;9882;51.166;6.992;2023-05-10T01:56:04;14.00;99.90
19483;DHT22;9882;51.166;6.992;2023-05-10T01:58:33;13.20;99.90
19483;DHT22;9882;51.166;6.992;2023-05-10T02:01:07;13.50;99.90
19483;DHT22;9882;51.166;6.992;2023-05-10T02:03:38;13.40;99.90
19483;DHT22;9882;51.166;6.992;2023-05-10T02:06:09;13.10;99.90
19483;DHT22;9882;51.166;6.992;2023-05-10T02:08:39;13.50;99.90
19483;DHT22;9882;51.166;6.992;2023-05-10T02:11:09;13.20;99.90
19483;DHT22;9882;51.166;6.992;2023-05-10T02:13:39;13.30;99.90
19483;DHT22;9882;51.166;6.992;2023-05-10T02:16:11;13.20;99.90
19483;DHT22;9882;51.166;6.992;2023-05-10T02:18:42;13.10;99.90
19483;DHT22;9882;51.166;6.992;2023-05-10T02:21:12;13.30;99.90
19483;DHT22;9882;51.166;6.992;2023-05-10T02:23:43;13.10;99.90
19483;DHT22;9882;51.166;6.992;2023-05-10T02:26:12;13.10;99.90
19483;DHT22;9882;51.166;6.992;2023-05-10T02:28:42;13.10;99.90
19483;DHT22;9882;51.166;6.992;2023-05-10T02:31:11;13.40;99.90
19483;DHT22;9882;51.166;6.992;2023-05-10T02:33:42;13.10;99.90
19483;DHT22;9882;51.166;6.992;2023-05-10T02:36:12;13.30;99.90
19483;DHT22;9882;51.166;6.992;2023-05-10T02:38:42;13.50;99.90
19483;DHT22;9882;51.166;6.992;2023-05-10T02:41:12;13.70;99.90
19483;DHT22;9882;51.166;6.992;2023-05-10T02:43:42;13.90;99.90
19483;DHT22;9882;51.166;6.992;2023-05-10T02:46:10;13.90;99.90
19483;DHT22;9882;51.166;6.992;2023-05-10T02:48:39;13.90;99.90
19483;DHT22;9882;51.166;6.992;2023-05-10T02:51:12;13.80;99.90
19483;DHT22;9882;51.166;6.992;2023-05-10T02:53:46;13.80;99.90
19483;DHT22;9882;51.166;6.992;2023-05-10T02:56:20;14.20;99.90
19483;DHT22;9882;51.166;6.992;2023-05-10T02:58:52;14.20;99.90
19483;DHT22;9882;51.166;6.992;2023-05-10T03:01:20;14.10;99.90
19483;DHT22;9882;51.166;6.992;2023-05-10T03:03:49;14.20;99.90
19483;DHT22;9882;51.166;6.992;2023-05-10T03:06:19;14.20;99.90
19483;DHT22;9882;51.166;6.992;2023-05-10T03:08:47;14.20;99.90
19483;DHT22;9882;51.166;6.992;2023-05-10T03:11:27;14.40;99.90
19483;DHT22;9882;51.166;6.992;2023-05-10T03:14:10;14.30;99.90
19483;DHT22;9882;51.166;6.992;2023-05-10T03:16:45;14.40;99.90
19483;DHT22;9882;51.166;6.992;2023-05-10T03:19:24;14.50;99.90
19483;DHT22;9882;51.166;6.992;2023-05-10T03:21:59;14.70;99.90
19483;DHT22;9882;51.166;6.992;2023-05-10T03:24:32;14.40;99.90
19483;DHT22;9882;51.166;6.992;2023-05-10T03:27:03;14.40;99.90
19483;DHT22;9882;51.166;6.992;2023-05-10T03:29:35;14.20;99.90
19483;DHT22;9882;51.166;6.992;2023-05-10T03:32:04;14.30;99.90
19483;DHT22;9882;51.166;6.992;2023-05-10T03:34:33;14.40;99.90
19483;DHT22;9882;51.166;6.992;2023-05-10T03:37:02;14.50;99.90
19483;DHT22;9882;51.166;6.992;2023-05-10T03:39:32;14.60;99.90
19483;DHT22;9882;51.166;6.992;2023-05-10T03:42:02;14.70;99.90
19483;DHT22;9882;51.166;6.992;2023-05-10T03:44:30;14.50;99.90
19483;DHT22;9882;51.166;6.992;2023-05-10T03:47:00;14.30;99.90
19483;DHT22;9882;51.166;6.992;2023-05-10T03:49:28;14.30;99.90
19483;DHT22;9882;51.166;6.992;2023-05-10T03:51:57;14.30;99.90
19483;DHT22;9882;51.166;6.992;2023-05-10T03:54:28;14.20;99.90
19483;DHT22;9882;51.166;6.992;2023-05-10T03:56:56;14.00;99.90
19483;DHT22;9882;51.166;6.992;2023-05-10T03:59:25;14.20;99.90
19483;DHT22;9882;51.166;6.992;2023-05-10T04:01:53;14.30;99.90
19483;DHT22;9882;51.166;6.992;2023-05-10T04:04:22;14.30;99.90
19483;DHT22;9882;51.166;6.992;2023-05-10T04:06:50;14.30;99.90
19483;DHT22;9882;51.166;6.992;2023-05-10T04:09:19;14.10;99.90
19483;DHT22;9882;51.166;6.992;2023-05-10T04:11:49;14.30;99.90
19483;DHT22;9882;51.166;6.992;2023-05-10T04:14:17;14.40;99.90
19483;DHT22;9882;51.166;6.992;2023-05-10T04:16:46;14.40;99.90
19483;DHT22;9882;51.166;6.992;2023-05-10T04:19:14;14.30;99.90
19483;DHT22;9882;51.166;6.992;2023-05-10T04:21:43;14.30;99.90
19483;DHT22;9882;51.166;6.992;2023-05-10T04:24:14;13.90;99.90
19483;DHT22;9882;51.166;6.992;2023-05-10T04:26:59;13.80;99.90
19483;DHT22;9882;51.166;6.992;2023-05-10T04:29:27;13.90;99.90
19483;DHT22;9882;51.166;6.992;2023-05-10T04:31:59;14.00;99.90
19483;DHT22;9882;51.166;6.992;2023-05-10T04:34:27;14.20;99.90
19483;DHT22;9882;51.166;6.992;2023-05-10T04:37:01;14.10;99.90
19483;DHT22;9882;51.166;6.992;2023-05-10T04:39:29;13.90;99.90
19483;DHT22;9882;51.166;6.992;2023-05-10T04:41:59;13.90;99.90
19483;DHT22;9882;51.166;6.992;2023-05-10T04:44:54;14.00;99.90
19483;DHT22;9882;51.166;6.992;2023-05-10T04:47:27;13.50;99.90
19483;DHT22;9882;51.166;6.992;2023-05-10T04:50:05;13.50;99.90
19483;DHT22;9882;51.166;6.992;2023-05-10T04:52:44;13.80;99.90
19483;DHT22;9882;51.166;6.992;2023-05-10T04:55:16;14.00;99.90
19483;DHT22;9882;51.166;6.992;2023-05-10T04:57:46;13.60;99.90
19483;DHT22;9882;51.166;6.992;2023-05-10T05:00:15;13.80;99.90
19483;DHT22;9882;51.166;6.992;2023-05-10T05:02:46;13.70;99.90
19483;DHT22;9882;51.166;6.992;2023-05-10T05:05:19;13.50;99.90
19483;DHT22;9882;51.166;6.992;2023-05-10T05:07:47;13.50;99.90
19483;DHT22;9882;51.166;6.992;2023-05-10T05:10:21;13.60;99.90
19483;DHT22;9882;51.166;6.992;2023-05-10T05:12:54;13.90;99.90
19483;DHT22;9882;51.166;6.992;2023-05-10T05:15:23;13.80;99.90
19483;DHT22;9882;51.166;6.992;2023-05-10T05:17:51;13.80;99.90
19483;DHT22;9882;51.166;6.992;2023-05-10T05:20:20;13.90;99.90
19483;DHT22;9882;51.166;6.992;2023-05-10T05:22:49;13.80;99.90
19483;DHT22;9882;51.166;6.992;2023-05-10T05:25:20;13.60;99.90
19483;DHT22;9882;51.166;6.992;2023-05-10T05:27:48;13.50;99.90
19483;DHT22;9882;51.166;6.992;2023-05-10T05:30:18;13.50;99.90
19483;DHT22;9882;51.166;6.992;2023-05-10T05:32:47;13.50;99.90
19483;DHT22;9882;51.166;6.992;2023-05-10T05:35:15;13.50;99.90
19483;DHT22;9882;51.166;6.992;2023-05-10T05:37:44;13.50;99.90
19483;DHT22;9882;51.166;6.992;2023-05-10T05:40:12;13.50;99.90
19483;DHT22;9882;51.166;6.992;2023-05-10T05:42:41;13.60;99.90
19483;DHT22;9882;51.166;6.992;2023-05-10T05:45:10;13.70;99.90
19483;DHT22;9882;51.166;6.992;2023-05-10T05:47:41;13.70;99.90
19483;DHT22;9882;51.166;6.992;2023-05-10T05:50:10;13.50;99.90
19483;DHT22;9882;51.166;6.992;2023-05-10T05:52:38;13.50;99.90
19483;DHT22;9882;51.166;6.992;2023-05-10T05:55:07;13.60;99.90
19483;DHT22;9882;51.166;6.992;2023-05-10T05:57:35;13.70;99.90
19483;DHT22;9882;51.166;6.992;2023-05-10T06:00:05;13.60;99.90
19483;DHT22;9882;51.166;6.992;2023-05-10T06:02:41;13.60;99.90
19483;DHT22;9882;51.166;6.992;2023-05-10T06:05:10;13.50;99.90
19483;DHT22;9882;51.166;6.992;2023-05-10T06:07:38;13.60;99.90
19483;DHT22;9882;51.166;6.992;2023-05-10T06:10:09;13.90;99.90
19483;DHT22;9882;51.166;6.992;2023-05-10T06:12:37;13.80;99.90
19483;DHT22;9882;51.166;6.992;2023-05-10T06:15:07;13.70;99.90
19483;DHT22;9882;51.166;6.992;2023-05-10T06:17:36;13.80;99.90
19483;DHT22;9882;51.166;6.992;2023-05-10T06:20:08;13.70;99.90
19483;DHT22;9882;51.166;6.992;2023-05-10T06:22:37;13.80;99.90
19483;DHT22;9882;51.166;6.992;2023-05-10T06:25:06;13.70;99.90
19483;DHT22;9882;51.166;6.992;2023-05-10T06:27:35;13.60;99.90
19483;DHT22;9882;51.166;6.992;2023-05-10T06:30:04;13.60;99.90
19483;DHT22;9882;51.166;6.992;2023-05-10T06:32:38;13.70;99.90
19483;DHT22;9882;51.166;6.992;2023-05-10T06:35:09;13.40;99.90
19483;DHT22;9882;51.166;6.992;2023-05-10T06:37:37;13.50;99.90
19483;DHT22;9882;51.166;6.992;2023-05-10T06:40:07;13.70;99.90
19483;DHT22;9882;51.166;6.992;2023-05-10T06:42:36;13.60;99.90
19483;DHT22;9882;51.166;6.992;2023-05-10T06:45:06;13.70;99.90
19483;DHT22;9882;51.166;6.992;2023-05-10T06:47:35;13.80;99.90
19483;DHT22;9882;51.166;6.992;2023-05-10T06:50:06;13.80;99.90
19483;DHT22;9882;51.166;6.992;2023-05-10T06:52:36;13.80;99.90
19483;DHT22;9882;51.166;6.992;2023-05-10T06:55:05;13.60;99.90
19483;DHT22;9882;51.166;6.992;2023-05-10T06:57:34;13.50;99.90
19483;DHT22;9882;51.166;6.992;2023-05-10T07:00:03;13.60;99.90
19483;DHT22;9882;51.166;6.992;2023-05-10T07:02:32;13.70;99.90
19483;DHT22;9882;51.166;6.992;2023-05-10T07:05:01;13.80;99.90
19483;DHT22;9882;51.166;6.992;2023-05-10T07:07:29;14.10;99.90
19483;DHT22;9882;51.166;6.992;2023-05-10T07:09:59;13.70;99.90
19483;DHT22;9882;51.166;6.992;2023-05-10T07:12:28;13.40;99.90
19483;DHT22;9882;51.166;6.992;2023-05-10T07:14:56;13.50;99.90
19483;DHT22;9882;51.166;6.992;2023-05-10T07:17:25;13.50;99.90
19483;DHT22;9882;51.166;6.992;2023-05-10T07:19:53;13.40;99.90
19483;DHT22;9882;51.166;6.992;2023-05-10T07:22:22;13.50;99.90
19483;DHT22;9882;51.166;6.992;2023-05-10T07:24:50;13.60;99.90
19483;DHT22;9882;51.166;6.992;2023-05-10T07:27:20;13.70;99.90
19483;DHT22;9882;51.166;6.992;2023-05-10T07:29:48;13.60;99.90
19483;DHT22;9882;51.166;6.992;2023-05-10T07:32:17;13.80;99.90
19483;DHT22;9882;51.166;6.992;2023-05-10T07:34:45;13.90;99.90
19483;DHT22;9882;51.166;6.992;2023-05-10T07:37:13;13.80;99.90
19483;DHT22;9882;51.166;6.992;2023-05-10T07:39:42;13.70;99.90
19483;DHT22;9882;51.166;6.992;2023-05-10T07:42:10;13.70;99.90
19483;DHT22;9882;51.166;6.992;2023-05-10T07:44:40;13.80;99.90
19483;DHT22;9882;51.166;6.992;2023-05-10T07:47:08;13.80;99.90
19483;DHT22;9882;51.166;6.992;2023-05-10T07:49:38;13.90;99.90
19483;DHT22;9882;51.166;6.992;2023-05-10T07:52:06;13.90;99.90
19483;DHT22;9882;51.166;6.992;2023-05-10T07:54:35;13.80;99.90
19483;DHT22;9882;51.166;6.992;2023-05-10T07:57:04;13.80;99.90
19483;DHT22;9882;51.166;6.992;2023-05-10T07:59:33;13.80;99.90
19483;DHT22;9882;51.166;6.992;2023-05-10T08:02:03;13.80;99.90
19483;DHT22;9882;51.166;6.992;2023-05-10T08:04:31;13.80;99.90
19483;DHT22;9882;51.166;6.992;2023-05-10T08:07:00;13.90;99.90
19483;DHT22;9882;51.166;6.992;2023-05-10T08:09:28;13.90;99.90
19483;DHT22;9882;51.166;6.992;2023-05-10T08:11:56;14.00;99.90
19483;DHT22;9882;51.166;6.992;2023-05-10T08:14:27;14.20;99.90
19483;DHT22;9882;51.166;6.992;2023-05-10T08:16:56;14.00;99.90
19483;DHT22;9882;51.166;6.992;2023-05-10T08:19:26;14.00;99.90
19483;DHT22;9882;51.166;6.992;2023-05-10T08:21:54;14.00;99.90
19483;DHT22;9882;51.166;6.992;2023-05-10T08:24:24;14.00;99.90
19483;DHT22;9882;51.166;6.992;2023-05-10T08:26:52;14.00;99.90
19483;DHT22;9882;51.166;6.992;2023-05-10T08:29:20;13.80;99.90
19483;DHT22;9882;51.166;6.992;2023-05-10T08:31:49;14.00;99.90
19483;DHT22;9882;51.166;6.992;2023-05-10T08:34:17;14.10;99.90
19483;DHT22;9882;51.166;6.992;2023-05-10T08:36:47;14.00;99.90
19483;DHT22;9882;51.166;6.992;2023-05-10T08:39:16;13.80;99.90
19483;DHT22;9882;51.166;6.992;2023-05-10T08:41:51;13.80;99.90
19483;DHT22;9882;51.166;6.992;2023-05-10T08:44:20;13.90;99.90
19483;DHT22;9882;51.166;6.992;2023-05-10T08:46:52;14.00;99.90
19483;DHT22;9882;51.166;6.992;2023-05-10T08:49:21;14.10;99.90
19483;DHT22;9882;51.166;6.992;2023-05-10T08:51:54;14.10;99.90
19483;DHT22;9882;51.166;6.992;2023-05-10T08:54:26;14.30;99.90
19483;DHT22;9882;51.166;6.992;2023-05-10T08:56:55;14.20;99.90
19483;DHT22;9882;51.166;6.992;2023-05-10T08:59:24;14.30;99.90
19483;DHT22;9882;51.166;6.992;2023-05-10T09:01:54;14.30;99.90
19483;DHT22;9882;51.166;6.992;2023-05-10T09:04:24;14.20;99.90
19483;DHT22;9882;51.166;6.992;2023-05-10T09:06:54;14.20;99.90
19483;DHT22;9882;51.166;6.992;2023-05-10T09:09:23;14.10;99.90
19483;DHT22;9882;51.166;6.992;2023-05-10T09:11:54;14.10;99.90
19483;DHT22;9882;51.166;6.992;2023-05-10T09:14:23;14.10;99.90
19483;DHT22;9882;51.166;6.992;2023-05-10T09:16:53;14.10;99.90
19483;DHT22;9882;51.166;6.992;2023-05-10T09:19:22;14.20;99.90
19483;DHT22;9882;51.166;6.992;2023-05-10T09:21:50;14.20;99.90
19483;DHT22;9882;51.166;6.992;2023-05-10T09:24:25;14.30;99.90
19483;DHT22;9882;51.166;6.992;2023-05-10T09:26:53;14.30;99.90
19483;DHT22;9882;51.166;6.992;2023-05-10T09:29:24;14.40;99.90
19483;DHT22;9882;51.166;6.992;2023-05-10T09:31:53;14.30;99.90
19483;DHT22;9882;51.166;6.992;2023-05-10T09:34:32;14.30;99.90
19483;DHT22;9882;51.166;6.992;2023-05-10T09:37:02;14.00;99.90
19483;DHT22;9882;51.166;6.992;2023-05-10T09:39:33;14.10;99.90
19483;DHT22;9882;51.166;6.992;2023-05-10T09:42:04;14.00;99.90
19483;DHT22;9882;51.166;6.992;2023-05-10T09:44:33;14.00;99.90
19483;DHT22;9882;51.166;6.992;2023-05-10T09:47:02;14.10;99.90
19483;DHT22;9882;51.166;6.992;2023-05-10T09:49:31;14.00;99.90
19483;DHT22;9882;51.166;6.992;2023-05-10T09:52:01;14.00;99.90
19483;DHT22;9882;51.166;6.992;2023-05-10T09:54:32;13.90;99.90
19483;DHT22;9882;51.166;6.992;2023-05-10T09:57:01;14.20;99.90
19483;DHT22;9882;51.166;6.992;2023-05-10T09:59:30;14.10;99.90
19483;DHT22;9882;51.166;6.992;2023-05-10T10:01:59;14.20;99.90
19483;DHT22;9882;51.166;6.992;2023-05-10T10:04:28;14.10;99.90
19483;DHT22;9882;51.166;6.992;2023-05-10T10:07:01;14.00;99.90
19483;DHT22;9882;51.166;6.992;2023-05-10T10:09:31;14.00;99.90
19483;DHT22;9882;51.166;6.992;2023-05-10T10:12:02;14.20;99.90
19483;DHT22;9882;51.166;6.992;2023-05-10T10:14:30;14.30;99.90
19483;DHT22;9882;51.166;6.992;2023-05-10T10:17:00;14.40;99.90
19483;DHT22;9882;51.166;6.992;2023-05-10T10:19:33;14.40;99.90
19483;DHT22;9882;51.166;6.992;2023-05-10T10:22:02;14.50;99.90
19483;DHT22;9882;51.166;6.992;2023-05-10T10:24:31;14.50;99.90
19483;DHT22;9882;51.166;6.992;2023-05-10T10:27:07;14.70;99.90
19483;DHT22;9882;51.166;6.992;2023-05-10T10:29:41;14.50;99.90
19483;DHT22;9882;51.166;6.992;2023-05-10T10:32:27;14.40;99.90
19483;DHT22;9882;51.166;6.992;2023-05-10T10:34:58;14.60;99.90
19483;DHT22;9882;51.166;6.992;2023-05-10T10:37:42;14.50;99.90
19483;DHT22;9882;51.166;6.992;2023-05-10T10:40:23;14.60;99.90
19483;DHT22;9882;51.166;6.992;2023-05-10T10:42:53;14.50;99.90
19483;DHT22;9882;51.166;6.992;2023-05-10T10:45:25;14.50;99.90
19483;DHT22;9882;51.166;6.992;2023-05-10T10:48:20;14.60;99.90
19483;DHT22;9882;51.166;6.992;2023-05-10T10:50:56;14.60;99.90
19483;DHT22;9882;51.166;6.992;2023-05-10T10:53:26;14.60;99.90
19483;DHT22;9882;51.166;6.992;2023-05-10T10:56:05;14.60;99.90
19483;DHT22;9882;51.166;6.992;2023-05-10T10:58:36;14.80;99.90
19483;DHT22;9882;51.166;6.992;2023-05-10T11:01:13;14.60;99.90
19483;DHT22;9882;51.166;6.992;2023-05-10T11:06:38;14.90;99.90
19483;DHT22;9882;51.166;6.992;2023-05-10T11:09:08;14.90;99.90
19483;DHT22;9882;51.166;6.992;2023-05-10T11:11:48;15.00;99.90
19483;DHT22;9882;51.166;6.992;2023-05-10T11:14:35;15.00;99.90
19483;DHT22;9882;51.166;6.992;2023-05-10T11:17:22;15.10;99.90
19483;DHT22;9882;51.166;6.992;2023-05-10T11:20:11;14.90;99.90
19483;DHT22;9882;51.166;6.992;2023-05-10T11:22:58;15.00;99.90
19483;DHT22;9882;51.166;6.992;2023-05-10T11:28:20;14.80;99.90
19483;DHT22;9882;51.166;6.992;2023-05-10T11:31:02;14.80;99.90
19483;DHT22;9882;51.166;6.992;2023-05-10T11:34:22;15.00;99.90
19483;DHT22;9882;51.166;6.992;2023-05-10T11:39:49;15.10;99.90
19483;DHT22;9882;51.166;6.992;2023-05-10T11:42:22;15.10;99.90
19483;DHT22;9882;51.166;6.992;2023-05-10T11:44:54;15.10;99.90
19483;DHT22;9882;51.166;6.992;2023-05-10T11:47:30;15.00;99.90
19483;DHT22;9882;51.166;6.992;2023-05-10T11:50:21;15.20;99.90
19483;DHT22;9882;51.166;6.992;2023-05-10T11:53:06;15.10;99.90
19483;DHT22;9882;51.166;6.992;2023-05-10T11:56:08;15.00;99.90
19483;DHT22;9882;51.166;6.992;2023-05-10T11:58:57;15.10;99.90
19483;DHT22;9882;51.166;6.992;2023-05-10T12:01:31;15.20;99.90
19483;DHT22;9882;51.166;6.992;2023-05-10T12:04:22;15.30;99.90
19483;DHT22;9882;51.166;6.992;2023-05-10T12:07:35;15.20;99.90
19483;DHT22;9882;51.166;6.992;2023-05-10T12:11:17;15.20;99.90
19483;DHT22;9882;51.166;6.992;2023-05-10T12:14:17;15.20;99.90
19483;DHT22;9882;51.166;6.992;2023-05-10T12:17:29;15.10;99.90
19483;DHT22;9882;51.166;6.992;2023-05-10T12:39:10;14.90;99.90
19483;DHT22;9882;51.166;6.992;2023-05-10T12:41:45;15.00;99.90
19483;DHT22;9882;51.166;6.992;2023-05-10T12:52:04;14.90;99.90
19483;DHT22;9882;51.166;6.992;2023-05-10T12:54:45;15.00;99.90
19483;DHT22;9882;51.166;6.992;2023-05-10T12:57:28;15.10;99.90
19483;DHT22;9882;51.166;6.992;2023-05-10T13:00:00;14.80;99.90
19483;DHT22;9882;51.166;6.992;2023-05-10T13:02:39;14.80;99.90
19483;DHT22;9882;51.166;6.992;2023-05-10T13:05:23;15.10;99.90
19483;DHT22;9882;51.166;6.992;2023-05-10T13:08:02;15.20;99.90
19483;DHT22;9882;51.166;6.992;2023-05-10T13:14:44;14.90;99.90
19483;DHT22;9882;51.166;6.992;2023-05-10T13:25:45;15.00;99.90
19483;DHT22;9882;51.166;6.992;2023-05-10T13:28:48;14.80;99.90
19483;DHT22;9882;51.166;6.992;2023-05-10T13:31:27;14.80;99.90
19483;DHT22;9882;51.166;6.992;2023-05-10T13:42:38;14.80;99.90
19483;DHT22;9882;51.166;6.992;2023-05-10T13:45:36;14.80;99.90
19483;DHT22;9882;51.166;6.992;2023-05-10T13:52:59;15.10;99.90
19483;DHT22;9882;51.166;6.992;2023-05-10T13:55:53;15.30;99.90
19483;DHT22;9882;51.166;6.992;2023-05-10T13:58:31;15.50;99.90
19483;DHT22;9882;51.166;6.992;2023-05-10T14:01:03;15.80;99.90
19483;DHT22;9882;51.166;6.992;2023-05-10T14:03:43;15.70;99.90
19483;DHT22;9882;51.166;6.992;2023-05-10T14:12:00;16.10;99.90
19483;DHT22;9882;51.166;6.992;2023-05-10T14:17:53;16.20;99.90
19483;DHT22;9882;51.166;6.992;2023-05-10T14:21:46;16.00;99.90
19483;DHT22;9882;51.166;6.992;2023-05-10T14:28:17;15.60;99.90
19483;DHT22;9882;51.166;6.992;2023-05-10T14:30:50;15.60;99.90
19483;DHT22;9882;51.166;6.992;2023-05-10T14:33:58;15.80;99.90
19483;DHT22;9882;51.166;6.992;2023-05-10T14:36:27;16.00;99.90
19483;DHT22;9882;51.166;6.992;2023-05-10T14:40:00;15.70;99.90
19483;DHT22;9882;51.166;6.992;2023-05-10T14:47:20;15.80;99.90
19483;DHT22;9882;51.166;6.992;2023-05-10T14:50:28;16.00;99.90
19483;DHT22;9882;51.166;6.992;2023-05-10T14:53:37;15.90;99.90
19483;DHT22;9882;51.166;6.992;2023-05-10T14:59:59;15.30;99.90
19483;DHT22;9882;51.166;6.992;2023-05-10T15:11:17;15.40;99.90
19483;DHT22;9882;51.166;6.992;2023-05-10T15:13:46;15.70;99.90
19483;DHT22;9882;51.166;6.992;2023-05-10T15:16:14;15.90;99.90
19483;DHT22;9882;51.166;6.992;2023-05-10T15:18:43;15.90;99.90
19483;DHT22;9882;51.166;6.992;2023-05-10T15:21:12;15.60;99.90
19483;DHT22;9882;51.166;6.992;2023-05-10T15:23:40;15.90;99.90
19483;DHT22;9882;51.166;6.992;2023-05-10T15:26:09;16.00;99.90
19483;DHT22;9882;51.166;6.992;2023-05-10T15:28:38;16.20;99.90
19483;DHT22;9882;51.166;6.992;2023-05-10T15:31:07;16.20;99.90
19483;DHT22;9882;51.166;6.992;2023-05-10T15:33:37;16.40;99.90
19483;DHT22;9882;51.166;6.992;2023-05-10T15:36:06;17.10;99.90
19483;DHT22;9882;51.166;6.992;2023-05-10T15:38:34;17.60;99.90
19483;DHT22;9882;51.166;6.992;2023-05-10T15:41:04;18.30;99.90
19483;DHT22;9882;51.166;6.992;2023-05-10T15:43:33;18.70;99.90
19483;DHT22;9882;51.166;6.992;2023-05-10T15:46:03;18.20;99.90
19483;DHT22;9882;51.166;6.992;2023-05-10T15:48:33;18.90;99.90
19483;DHT22;9882;51.166;6.992;2023-05-10T15:51:01;19.10;99.90
19483;DHT22;9882;51.166;6.992;2023-05-10T15:53:30;19.40;99.90
19483;DHT22;9882;51.166;6.992;2023-05-10T15:55:58;19.70;99.90
19483;DHT22;9882;51.166;6.992;2023-05-10T15:58:27;19.60;99.90
19483;DHT22;9882;51.166;6.992;2023-05-10T16:00:55;18.60;99.90
19483;DHT22;9882;51.166;6.992;2023-05-10T16:03:26;17.70;99.90
19483;DHT22;9882;51.166;6.992;2023-05-10T16:05:54;17.80;99.90
19483;DHT22;9882;51.166;6.992;2023-05-10T16:08:23;17.30;99.90
19483;DHT22;9882;51.166;6.992;2023-05-10T16:10:52;17.20;99.90
19483;DHT22;9882;51.166;6.992;2023-05-10T16:13:20;17.40;99.90
19483;DHT22;9882;51.166;6.992;2023-05-10T16:15:49;17.40;99.90
19483;DHT22;9882;51.166;6.992;2023-05-10T16:18:17;17.50;99.90
19483;DHT22;9882;51.166;6.992;2023-05-10T16:20:47;17.40;99.90
19483;DHT22;9882;51.166;6.992;2023-05-10T16:23:16;17.50;99.90
19483;DHT22;9882;51.166;6.992;2023-05-10T16:25:45;17.70;99.90
19483;DHT22;9882;51.166;6.992;2023-05-10T16:28:14;17.50;99.90
19483;DHT22;9882;51.166;6.992;2023-05-10T16:30:42;17.60;99.90
19483;DHT22;9882;51.166;6.992;2023-05-10T16:33:11;17.50;99.90
19483;DHT22;9882;51.166;6.992;2023-05-10T16:35:40;17.40;99.90
19483;DHT22;9882;51.166;6.992;2023-05-10T16:38:10;17.10;99.90
19483;DHT22;9882;51.166;6.992;2023-05-10T16:40:38;17.40;99.90
19483;DHT22;9882;51.166;6.992;2023-05-10T16:43:07;17.20;99.90
19483;DHT22;9882;51.166;6.992;2023-05-10T16:45:36;17.30;99.90
19483;DHT22;9882;51.166;6.992;2023-05-10T16:48:05;17.20;99.90
19483;DHT22;9882;51.166;6.992;2023-05-10T16:50:33;17.30;99.90
19483;DHT22;9882;51.166;6.992;2023-05-10T16:53:02;16.90;99.90
19483;DHT22;9882;51.166;6.992;2023-05-10T16:55:31;16.70;99.90
19483;DHT22;9882;51.166;6.992;2023-05-10T16:58:00;16.80;99.90
19483;DHT22;9882;51.166;6.992;2023-05-10T17:00:29;17.00;99.90
19483;DHT22;9882;51.166;6.992;2023-05-10T17:02:57;17.10;99.90
19483;DHT22;9882;51.166;6.992;2023-05-10T17:05:26;16.70;99.90
19483;DHT22;9882;51.166;6.992;2023-05-10T17:07:54;16.20;99.90
19483;DHT22;9882;51.166;6.992;2023-05-10T17:10:23;16.00;99.90
19483;DHT22;9882;51.166;6.992;2023-05-10T17:12:53;15.70;99.90
19483;DHT22;9882;51.166;6.992;2023-05-10T17:15:21;15.30;99.90
19483;DHT22;9882;51.166;6.992;2023-05-10T17:17:50;15.20;99.90
19483;DHT22;9882;51.166;6.992;2023-05-10T17:20:19;15.30;99.90
19483;DHT22;9882;51.166;6.992;2023-05-10T17:22:48;14.90;99.90
19483;DHT22;9882;51.166;6.992;2023-05-10T17:25:16;14.80;99.90
19483;DHT22;9882;51.166;6.992;2023-05-10T17:27:45;15.50;99.90
19483;DHT22;9882;51.166;6.992;2023-05-10T17:30:15;15.70;99.90
19483;DHT22;9882;51.166;6.992;2023-05-10T17:32:48;15.60;99.90
19483;DHT22;9882;51.166;6.992;2023-05-10T17:35:17;15.80;99.90
19483;DHT22;9882;51.166;6.992;2023-05-10T17:37:46;16.20;99.90
19483;DHT22;9882;51.166;6.992;2023-05-10T17:40:14;16.20;99.90
19483;DHT22;9882;51.166;6.992;2023-05-10T17:42:43;16.40;99.90
19483;DHT22;9882;51.166;6.992;2023-05-10T17:45:11;16.50;99.90
19483;DHT22;9882;51.166;6.992;2023-05-10T17:47:41;16.40;99.90
19483;DHT22;9882;51.166;6.992;2023-05-10T17:50:10;16.50;99.90
19483;DHT22;9882;51.166;6.992;2023-05-10T17:52:39;16.50;99.90
19483;DHT22;9882;51.166;6.992;2023-05-10T17:55:08;16.40;99.90